createdAt,value
2022-08-03T00:02:23.185Z,92.15
2022-08-03T00:07:24.733Z,94.48
2022-08-03T00:12:26.277Z,94.05
2022-08-03T00:17:27.900Z,95.29
2022-08-03T00:22:29.490Z,96.80
2022-08-03T00:27:32.591Z,97.54
2022-08-03T00:32:34.296Z,97.72
2022-08-03T00:37:41.260Z,98.52
2022-08-03T00:42:47.006Z,99.35
2022-08-03T00:47:49.021Z,99.81
2022-08-03T00:52:52.556Z,99.52
2022-08-03T00:57:54.474Z,100.00
2022-08-03T01:02:56.067Z,100.00
2022-08-03T01:08:03.668Z,99.94
2022-08-03T01:14:01.558Z,100.00
2022-08-03T01:18:53.214Z,100.00
2022-08-03T01:24:17.353Z,100.00
2022-08-03T01:29:36.081Z,100.00
2022-08-03T01:34:43.484Z,100.00
2022-08-03T01:39:45.314Z,100.00
2022-08-03T01:44:47.968Z,100.00
2022-08-03T01:49:50.991Z,100.00
2022-08-03T01:54:53.615Z,100.00
2022-08-03T01:59:57.123Z,100.00
2022-08-03T02:05:00.796Z,100.00
2022-08-03T02:10:05.905Z,100.00
2022-08-03T02:15:08.152Z,100.00
2022-08-03T02:20:13.366Z,100.00
2022-08-03T02:25:17.577Z,100.00
2022-08-03T02:30:19.931Z,100.00
2022-08-03T02:35:24.315Z,100.00
2022-08-03T02:40:29.325Z,100.00
2022-08-03T02:45:35.228Z,100.00
2022-08-03T02:50:37.280Z,100.00
2022-08-03T02:55:43.145Z,100.00
2022-08-03T03:00:48.798Z,100.00
2022-08-03T03:05:54.594Z,100.00
2022-08-03T03:11:01.521Z,100.00
2022-08-03T03:16:06.043Z,100.00
2022-08-03T03:21:09.607Z,100.00
2022-08-03T03:26:13.869Z,100.00
2022-08-03T03:31:15.567Z,100.00
2022-08-03T03:36:17.311Z,100.00
2022-08-03T03:41:18.902Z,100.00
2022-08-03T03:46:22.569Z,100.00
2022-08-03T03:51:24.101Z,100.00
2022-08-03T03:56:25.969Z,100.00
2022-08-03T04:01:27.672Z,100.00
2022-08-03T04:06:29.288Z,100.00
2022-08-03T04:11:38.202Z,100.00
2022-08-03T04:16:44.021Z,100.00
2022-08-03T04:21:49.805Z,100.00
2022-08-03T04:26:52.903Z,100.00
2022-08-03T04:31:57.504Z,100.00
2022-08-03T04:37:01.438Z,100.00
2022-08-03T04:42:08.545Z,100.00
2022-08-03T04:47:10.718Z,100.00
2022-08-03T04:52:12.395Z,100.00
2022-08-03T04:57:22.092Z,100.00
2022-08-03T05:02:25.246Z,100.00
2022-08-03T05:07:35.651Z,100.00
2022-08-03T05:12:38.735Z,100.00
2022-08-03T05:17:41.354Z,100.00
2022-08-03T05:22:43.035Z,99.64
2022-08-03T05:27:44.702Z,95.40
2022-08-03T05:32:46.387Z,91.04
2022-08-03T05:37:54.593Z,84.09
2022-08-03T05:42:56.785Z,80.98
2022-08-03T05:47:59.664Z,77.97
2022-08-03T05:53:01.395Z,79.11
2022-08-03T05:58:03.014Z,76.37
2022-08-03T06:03:04.739Z,74.90
2022-08-03T06:08:06.399Z,72.32
2022-08-03T06:13:08.099Z,73.66
2022-08-03T06:18:09.904Z,70.71
2022-08-03T06:23:15.917Z,68.47
2022-08-03T06:28:51.866Z,65.79
2022-08-03T06:34:31.357Z,66.68
2022-08-03T06:39:05.771Z,66.87
2022-08-03T06:44:10.295Z,65.42
2022-08-03T06:49:12.133Z,64.74
2022-08-03T06:54:13.837Z,62.33
2022-08-03T07:00:10.275Z,62.83
2022-08-03T07:04:37.731Z,57.73
2022-08-03T07:09:39.347Z,56.91
2022-08-03T07:14:43.400Z,55.03
2022-08-03T07:19:45.136Z,52.90
2022-08-03T07:24:46.761Z,49.52
2022-08-03T07:29:48.480Z,54.50
2022-08-03T07:34:50.486Z,54.00
2022-08-03T07:39:52.100Z,50.23
2022-08-03T07:44:54.022Z,48.30
2022-08-03T07:49:56.448Z,47.91
2022-08-03T07:54:58.255Z,47.70
2022-08-03T08:00:02.173Z,45.23
2022-08-03T08:05:13.596Z,43.28
2022-08-03T08:10:15.562Z,42.05
2022-08-03T08:15:17.362Z,43.59
2022-08-03T08:20:28.160Z,42.04
2022-08-03T08:25:33.543Z,44.37
2022-08-03T08:30:35.354Z,38.80
2022-08-03T08:35:37.275Z,39.34
2022-08-03T08:40:38.978Z,40.19
2022-08-03T08:45:41.507Z,38.66
2022-08-03T08:50:43.586Z,36.81
2022-08-03T08:55:59.116Z,38.27
2022-08-03T09:01:02.248Z,36.41
2022-08-03T09:06:04.341Z,33.99
2022-08-03T09:11:05.994Z,37.76
2022-08-03T09:16:10.905Z,35.53
2022-08-03T09:21:34.988Z,33.15
2022-08-03T09:26:37.865Z,30.96
2022-08-03T09:31:45.055Z,31.00
2022-08-03T09:36:51.334Z,32.33
2022-08-03T09:42:10.515Z,32.90
2022-08-03T09:47:14.204Z,32.31
2022-08-03T09:52:33.235Z,32.28
2022-08-03T09:57:43.594Z,30.70
2022-08-03T10:02:46.249Z,30.98
2022-08-03T10:07:49.591Z,30.04
2022-08-03T10:12:51.978Z,29.88
2022-08-03T10:17:53.687Z,29.44
2022-08-03T10:22:56.260Z,29.29
2022-08-03T10:28:02.027Z,28.25
2022-08-03T10:33:51.040Z,28.99
2022-08-03T10:38:57.003Z,27.75
2022-08-03T10:44:17.706Z,27.68
2022-08-03T10:49:32.821Z,27.00
2022-08-03T10:54:44.941Z,28.08
2022-08-03T10:59:49.529Z,30.59
2022-08-03T11:05:30.166Z,30.03
2022-08-03T11:10:32.572Z,27.75
2022-08-03T11:15:34.825Z,27.35
2022-08-03T11:20:47.643Z,27.57
2022-08-03T11:26:09.104Z,27.17
2022-08-03T11:31:51.493Z,28.18
2022-08-03T11:37:24.571Z,26.47
2022-08-03T11:42:27.844Z,26.16
2022-08-03T11:47:30.179Z,26.44
2022-08-03T11:52:38.468Z,26.46
2022-08-03T11:59:17.464Z,24.75
2022-08-03T12:03:03.560Z,26.10
2022-08-03T12:08:07.026Z,25.41
2022-08-03T12:14:08.386Z,26.21
2022-08-03T12:18:30.603Z,27.26
2022-08-03T12:23:36.077Z,25.06
2022-08-03T12:28:49.897Z,23.23
2022-08-03T12:34:04.219Z,24.80
2022-08-03T12:39:08.032Z,24.85
2022-08-03T12:44:10.117Z,24.55
2022-08-03T12:49:14.641Z,22.55
2022-08-03T12:54:24.586Z,23.17
2022-08-03T12:59:34.804Z,24.14
2022-08-03T13:04:37.309Z,24.73
2022-08-03T13:09:41.954Z,25.32
2022-08-03T13:14:45.945Z,24.56
2022-08-03T13:19:48.942Z,23.77
2022-08-03T13:24:53.125Z,24.31
2022-08-03T13:29:56.098Z,24.40
2022-08-03T13:34:57.614Z,25.07
2022-08-03T13:40:03.059Z,23.63
2022-08-03T13:45:06.754Z,22.69
2022-08-03T13:50:08.455Z,22.42
2022-08-03T13:55:10.186Z,22.53
2022-08-03T14:00:12.339Z,23.20
2022-08-03T14:05:13.987Z,22.78
2022-08-03T14:10:15.679Z,22.87
2022-08-03T14:15:17.342Z,23.97
2022-08-03T14:20:37.228Z,22.63
2022-08-03T14:25:44.533Z,24.29
2022-08-03T14:30:53.096Z,24.49
2022-08-03T14:35:55.138Z,26.97
2022-08-03T14:40:56.782Z,26.68
2022-08-03T14:45:58.445Z,24.27
2022-08-03T14:51:00.150Z,23.61
2022-08-03T14:56:05.199Z,23.41
2022-08-03T15:02:02.721Z,22.60
2022-08-03T15:06:31.258Z,24.37
2022-08-03T15:11:32.957Z,25.74
2022-08-03T15:16:34.606Z,25.11
2022-08-03T15:21:46.771Z,24.79
2022-08-03T15:26:49.129Z,25.68
2022-08-03T15:31:50.751Z,25.54
2022-08-03T15:36:52.388Z,25.70
2022-08-03T15:41:54.122Z,23.68
2022-08-03T15:46:55.754Z,25.47
2022-08-03T15:51:57.422Z,22.67
2022-08-03T15:56:59.081Z,24.47
2022-08-03T16:02:00.872Z,24.50
2022-08-03T16:07:02.701Z,23.16
2022-08-03T16:12:04.683Z,24.38
2022-08-03T16:17:06.292Z,25.07
2022-08-03T16:22:08.076Z,23.95
2022-08-03T16:27:17.305Z,23.35
2022-08-03T16:32:33.108Z,23.80
2022-08-03T16:37:38.611Z,26.46
2022-08-03T16:42:44.387Z,24.94
2022-08-03T16:47:45.956Z,22.92
2022-08-03T16:52:47.843Z,23.94
2022-08-03T16:57:58.670Z,23.32
2022-08-03T17:03:18.591Z,23.11
2022-08-03T17:08:26.900Z,22.23
2022-08-03T17:13:39.177Z,23.21
2022-08-03T17:18:56.035Z,23.28
2022-08-03T17:24:03.326Z,23.47
2022-08-03T17:29:11.317Z,24.22
2022-08-03T17:34:14.824Z,25.24
2022-08-03T17:39:27.063Z,25.66
2022-08-03T17:44:46.428Z,26.30
2022-08-03T17:49:48.975Z,27.59
2022-08-03T17:55:55.170Z,28.43
2022-08-03T18:00:42.690Z,29.57
2022-08-03T18:06:11.085Z,30.14
2022-08-03T18:11:17.818Z,30.22
2022-08-03T18:16:27.760Z,30.42
2022-08-03T18:26:51.671Z,31.93
2022-08-03T18:32:02.737Z,32.88
2022-08-03T18:37:07.664Z,33.52
2022-08-03T18:42:09.865Z,34.32
2022-08-03T18:47:54.868Z,35.24
2022-08-03T18:53:23.343Z,35.05
2022-08-03T18:59:02.401Z,36.00
2022-08-03T19:04:15.413Z,36.96
2022-08-03T19:09:45.554Z,37.44
2022-08-03T19:14:53.570Z,37.59
2022-08-03T19:19:58.322Z,37.51
2022-08-03T19:25:04.590Z,38.19
2022-08-03T19:30:20.012Z,38.72
2022-08-03T19:35:46.973Z,38.40
2022-08-03T19:40:52.640Z,38.96
2022-08-03T19:46:05.866Z,40.22
2022-08-03T19:51:12.483Z,40.96
2022-08-03T19:56:18.973Z,41.68
2022-08-03T20:01:21.933Z,42.58
2022-08-03T20:06:23.697Z,42.16
2022-08-03T20:11:29.033Z,42.54
2022-08-03T20:16:30.739Z,42.89
2022-08-03T20:21:33.945Z,43.35
2022-08-03T20:26:42.141Z,44.14
2022-08-03T20:31:44.899Z,45.29
2022-08-03T20:36:46.609Z,44.65
2022-08-03T20:41:48.231Z,45.52
2022-08-03T20:46:53.378Z,46.93
2022-08-03T20:52:18.701Z,47.62
2022-08-03T20:57:20.811Z,48.11
2022-08-03T21:02:30.001Z,48.31
2022-08-03T21:08:04.160Z,49.06
2022-08-03T21:12:57.780Z,30.94
2022-08-03T21:13:22.604Z,50.06
2022-08-03T21:18:26.426Z,50.23
2022-08-03T21:23:39.827Z,50.81
2022-08-03T21:28:52.037Z,51.78
2022-08-03T21:33:59.453Z,52.62
2022-08-03T21:39:02.882Z,53.87
2022-08-03T21:44:05.824Z,55.18
2022-08-03T21:50:05.268Z,56.24
2022-08-03T21:54:37.226Z,55.76
2022-08-03T21:59:45.433Z,55.27
2022-08-03T22:04:55.620Z,56.93
2022-08-03T22:10:01.325Z,58.83
2022-08-03T22:15:06.822Z,59.97
2022-08-03T22:20:11.088Z,60.68
2022-08-03T22:25:15.730Z,59.90
2022-08-03T22:30:19.100Z,59.33
2022-08-03T22:35:21.566Z,61.01
2022-08-03T22:40:23.815Z,62.53
2022-08-03T22:46:07.275Z,63.40
2022-08-03T22:50:48.278Z,64.15
2022-08-03T22:55:51.258Z,65.43
2022-08-03T23:01:08.089Z,66.56
2022-08-03T23:06:09.879Z,67.36
2022-08-03T23:11:11.989Z,68.59
2022-08-03T23:16:15.934Z,69.08
2022-08-03T23:21:59.797Z,71.23
2022-08-03T23:26:53.662Z,73.32
2022-08-03T23:31:57.310Z,73.70
2022-08-03T23:37:01.838Z,71.49
2022-08-03T23:42:04.219Z,72.11
2022-08-03T23:47:05.817Z,73.91
2022-08-03T23:52:19.674Z,72.89
2022-08-03T23:57:36.876Z,75.72
